Time;durP1;ratioP1;P1;durP2;ratioP2;P2;SDS_P1;SDS_P2;PMS_P1;PMS_P2;Temp;Humidity;BMP_temperature;BMP_pressure;BME280_temperature;BME280_humidity;BME280_pressure;Samples;Min_cycle;Max_cycle;Signal;HPM_P1;HPM_P2
2022/05/10 00:01:04;;;;;;;10.30;5.03;;;14.30;99.90;;;;;;4810766;29;20495;-87
2022/05/10 00:03:37;;;;;;;7.22;4.80;;;14.30;99.90;;;;;;4825628;29;20054;-86
2022/05/10 00:06:04;;;;;;;7.75;4.57;;;14.30;99.90;;;;;;4810933;29;20057;-88
2022/05/10 00:08:30;;;;;;;7.90;4.18;;;14.30;99.90;;;;;;4825700;29;20051;-86
2022/05/10 00:10:56;;;;;;;7.63;4.20;;;14.30;99.90;;;;;;4826714;29;20111;-87
2022/05/10 00:13:26;;;;;;;9.82;4.35;;;14.30;99.90;;;;;;4825900;29;20111;-87
2022/05/10 00:15:52;;;;;;;6.32;4.05;;;14.20;99.90;;;;;;4825472;29;20054;-86
2022/05/10 00:18:22;;;;;;;9.85;5.10;;;14.20;99.90;;;;;;4825298;29;20054;-85
2022/05/10 00:20:48;;;;;;;8.48;5.22;;;14.20;99.90;;;;;;4826796;29;20097;-86
2022/05/10 00:23:14;;;;;;;7.65;4.07;;;14.10;99.90;;;;;;4810579;29;20098;-85
2022/05/10 00:25:41;;;;;;;10.90;4.72;;;14.10;99.90;;;;;;4825811;29;20058;-85
2022/05/10 00:28:07;;;;;;;7.78;4.57;;;14.10;99.90;;;;;;4825722;29;20054;-85
2022/05/10 00:30:34;;;;;;;8.43;4.65;;;14.10;99.90;;;;;;4840295;29;20099;-85
2022/05/10 00:32:59;;;;;;;8.05;4.40;;;14.00;99.90;;;;;;4824996;29;20094;-84
2022/05/10 00:35:28;;;;;;;7.80;4.93;;;14.00;99.90;;;;;;4826347;29;20089;-84
2022/05/10 00:37:59;;;;;;;11.20;4.50;;;14.00;99.90;;;;;;4825153;29;20050;-84
2022/05/10 00:40:30;;;;;;;8.13;4.40;;;14.00;99.90;;;;;;4825115;29;20058;-84
2022/05/10 00:43:20;;;;;;;7.93;4.97;;;14.00;99.90;;;;;;4840341;29;20129;-85
2022/05/10 00:46:32;;;;;;;8.07;4.60;;;14.00;99.90;;;;;;4826108;29;20500;-83
2022/05/10 00:49:20;;;;;;;9.38;4.95;;;14.00;99.90;;;;;;4805951;29;20082;-85
2022/05/10 00:51:53;;;;;;;9.55;4.63;;;13.90;99.90;;;;;;4825853;29;20050;-84
2022/05/10 00:54:24;;;;;;;7.13;4.35;;;13.90;99.90;;;;;;4825068;29;20058;-84
2022/05/10 00:56:54;;;;;;;9.25;5.05;;;13.90;99.90;;;;;;4825990;29;20195;-84
2022/05/10 00:59:56;;;;;;;7.78;4.43;;;13.90;99.90;;;;;;4824487;29;20416;-83
2022/05/10 01:02:43;;;;;;;7.85;4.28;;;13.90;99.90;;;;;;4822658;29;20055;-83
2022/05/10 01:05:23;;;;;;;9.02;4.97;;;13.80;99.90;;;;;;4825970;29;20082;-84
2022/05/10 01:08:07;;;;;;;8.82;4.50;;;13.80;99.90;;;;;;4824835;29;20141;-84
2022/05/10 01:10:38;;;;;;;8.13;4.90;;;13.80;99.90;;;;;;4825458;29;20499;-84
2022/05/10 01:13:28;;;;;;;9.02;4.40;;;13.80;99.90;;;;;;4825831;29;20496;-84
2022/05/10 01:16:14;;;;;;;8.13;4.50;;;13.70;99.90;;;;;;4825706;29;20050;-84
2022/05/10 01:18:41;;;;;;;7.90;4.80;;;13.70;99.90;;;;;;4825339;29;20049;-83
2022/05/10 01:21:37;;;;;;;6.75;4.20;;;13.70;99.90;;;;;;4809650;29;20141;-85
2022/05/10 01:24:30;;;;;;;8.60;4.47;;;13.70;99.90;;;;;;4824336;29;20133;-84
2022/05/10 01:27:14;;;;;;;6.30;4.00;;;13.70;99.90;;;;;;4825574;29;20517;-84
2022/05/10 01:30:07;;;;;;;8.13;4.30;;;13.60;99.90;;;;;;4825005;29;20091;-85
2022/05/10 01:38:43;;;;;;;7.30;4.47;;;13.60;99.90;;;;;;5367632;24;20148;-83
2022/05/10 01:41:28;;;;;;;7.35;4.32;;;13.60;99.90;;;;;;4823902;29;20456;-82
2022/05/10 01:44:06;;;;;;;6.25;4.35;;;13.60;99.90;;;;;;4826169;29;20051;-83
2022/05/10 01:46:32;;;;;;;11.40;4.55;;;13.60;99.90;;;;;;4825259;29;20054;-82
2022/05/10 01:49:22;;;;;;;7.80;4.15;;;13.60;99.90;;;;;;4825279;29;20087;-83
2022/05/10 01:52:01;;;;;;;8.30;4.30;;;13.60;99.90;;;;;;4825521;29;20054;-81
2022/05/10 01:54:46;;;;;;;8.73;4.63;;;13.60;99.90;;;;;;4825965;29;20073;-82
2022/05/10 01:57:15;;;;;;;7.25;3.90;;;13.60;99.90;;;;;;4825978;29;20061;-81
2022/05/10 01:59:47;;;;;;;8.05;4.75;;;13.50;99.90;;;;;;4824364;29;20104;-82
2022/05/10 02:02:15;;;;;;;6.70;4.05;;;13.60;99.90;;;;;;4825968;29;20051;-82
2022/05/10 02:04:45;;;;;;;9.55;4.63;;;13.50;99.90;;;;;;4809055;29;20502;-82
2022/05/10 02:07:13;;;;;;;9.10;4.22;;;13.60;99.90;;;;;;4824374;29;20145;-84
2022/05/10 02:10:06;;;;;;;7.07;4.75;;;13.50;99.90;;;;;;4825352;29;20122;-82
2022/05/10 02:12:53;;;;;;;7.28;4.78;;;13.50;99.90;;;;;;4825623;29;20054;-84
2022/05/10 02:15:40;;;;;;;10.30;4.70;;;13.50;99.90;;;;;;4825596;29;20057;-85
2022/05/10 02:18:14;;;;;;;7.22;4.95;;;13.40;99.90;;;;;;4825327;29;20054;-84
2022/05/10 02:20:57;;;;;;;6.55;4.63;;;13.40;99.90;;;;;;4825350;29;20042;-83
2022/05/10 02:23:30;;;;;;;5.85;4.40;;;13.40;99.90;;;;;;4830458;29;20054;-84
2022/05/10 02:26:15;;;;;;;;;;;13.40;99.90;;;;;;4829902;29;20050;-83
2022/05/10 02:28:48;;;;;;;7.65;5.35;;;13.40;99.90;;;;;;4826071;29;19950;-83
2022/05/10 02:31:19;;;;;;;10.05;5.30;;;13.40;99.90;;;;;;4826808;29;20125;-82
2022/05/10 02:33:47;;;;;;;9.65;5.55;;;13.40;99.90;;;;;;4829964;29;20050;-84
2022/05/10 02:36:12;;;;;;;8.38;5.40;;;13.40;99.90;;;;;;4826902;29;20160;-85
2022/05/10 02:38:40;;;;;;;8.73;5.60;;;13.40;99.90;;;;;;4826250;29;20094;-84
2022/05/10 02:41:18;;;;;;;8.98;5.75;;;13.40;99.90;;;;;;4824978;29;20475;-83
2022/05/10 02:43:56;;;;;;;10.25;5.75;;;13.40;99.90;;;;;;4824720;29;20059;-83
2022/05/10 02:46:24;;;;;;;10.55;6.03;;;13.40;99.90;;;;;;4826492;29;20054;-84
2022/05/10 02:48:50;;;;;;;9.65;5.93;;;13.40;99.90;;;;;;4825038;29;20046;-85
2022/05/10 02:51:17;;;;;;;7.25;5.72;;;13.40;99.90;;;;;;4823876;29;20058;-84
2022/05/10 02:53:43;;;;;;;9.55;5.93;;;13.40;99.90;;;;;;4824852;29;20088;-83
2022/05/10 02:56:13;;;;;;;10.57;6.35;;;13.40;99.90;;;;;;4825171;29;20519;-83
2022/05/10 02:59:24;;;;;;;10.98;6.82;;;13.40;99.90;;;;;;4824008;29;20053;-84
2022/05/10 03:02:22;;;;;;;11.50;6.78;;;13.50;99.90;;;;;;4817102;29;20145;-83
2022/05/10 03:04:56;;;;;;;10.82;7.22;;;13.50;99.90;;;;;;4827567;29;20050;-84
2022/05/10 03:07:23;;;;;;;11.52;7.00;;;13.40;99.90;;;;;;4828371;29;20182;-83
2022/05/10 03:09:48;;;;;;;12.27;6.97;;;13.50;99.90;;;;;;4826941;29;20046;-83
2022/05/10 03:12:15;;;;;;;10.27;6.72;;;13.50;99.90;;;;;;4828168;29;20086;-84
2022/05/10 03:14:41;;;;;;;10.77;7.90;;;13.50;99.90;;;;;;4827068;29;20117;-85
2022/05/10 03:17:10;;;;;;;10.70;7.53;;;13.50;99.90;;;;;;4828150;29;20058;-83
2022/05/10 03:19:36;;;;;;;12.02;7.80;;;13.50;99.90;;;;;;4827272;29;20047;-84
2022/05/10 03:22:02;;;;;;;12.60;7.68;;;13.60;99.90;;;;;;4828575;29;20054;-84
2022/05/10 03:24:28;;;;;;;12.75;7.50;;;13.60;99.90;;;;;;4826871;29;20097;-84
2022/05/10 03:26:54;;;;;;;12.23;7.45;;;13.60;99.90;;;;;;4828503;29;20083;-84
2022/05/10 03:29:21;;;;;;;11.23;8.40;;;13.60;99.90;;;;;;4828508;29;20043;-85
2022/05/10 03:31:47;;;;;;;12.75;8.40;;;13.70;99.90;;;;;;4827679;29;20058;-85
2022/05/10 03:36:57;;;;;;;10.75;7.68;;;13.70;99.90;;;;;;4827587;29;20127;-85
2022/05/10 03:39:23;;;;;;;12.23;8.40;;;13.70;99.90;;;;;;4826158;29;20149;-84
2022/05/10 03:41:49;;;;;;;11.38;7.75;;;13.70;99.90;;;;;;4827447;29;20054;-84
2022/05/10 03:44:14;;;;;;;14.60;8.30;;;13.70;99.90;;;;;;4826731;29;20115;-84
2022/05/10 03:46:40;;;;;;;11.70;7.88;;;13.70;99.90;;;;;;4827299;29;20131;-85
2022/05/10 03:49:06;;;;;;;11.85;8.32;;;13.70;99.90;;;;;;4827325;29;20056;-83
2022/05/10 03:51:32;;;;;;;13.57;9.00;;;13.70;99.90;;;;;;4826358;29;20046;-84
2022/05/10 03:54:00;;;;;;;13.38;8.82;;;13.70;99.90;;;;;;4826943;29;20046;-83
2022/05/10 03:56:26;;;;;;;10.25;7.93;;;13.70;99.90;;;;;;4826309;29;20050;-83
2022/05/10 03:58:52;;;;;;;15.75;9.18;;;13.70;99.90;;;;;;4827324;29;20091;-84
2022/05/10 04:01:19;;;;;;;13.02;9.07;;;13.70;99.90;;;;;;4827261;29;20118;-84
2022/05/10 04:03:45;;;;;;;14.02;8.77;;;13.70;99.90;;;;;;4825912;29;20510;-83
2022/05/10 04:06:11;;;;;;;15.77;8.55;;;13.70;99.90;;;;;;4827591;29;20054;-84
2022/05/10 04:08:37;;;;;;;11.82;8.57;;;13.70;99.90;;;;;;4810902;29;20050;-83
2022/05/10 04:11:05;;;;;;;16.27;9.07;;;13.70;99.90;;;;;;4825583;29;20141;-83
2022/05/10 04:13:31;;;;;;;15.75;8.88;;;13.70;99.90;;;;;;4826048;29;20392;-83
2022/05/10 04:15:58;;;;;;;11.50;8.50;;;13.70;99.90;;;;;;4827712;29;20062;-83
2022/05/10 04:18:25;;;;;;;12.95;9.55;;;13.70;99.90;;;;;;4826098;29;20413;-84
2022/05/10 04:20:50;;;;;;;12.75;8.63;;;13.70;99.90;;;;;;4826000;29;20047;-85
2022/05/10 04:23:16;;;;;;;12.25;8.63;;;13.70;99.90;;;;;;4826939;29;20042;-85
2022/05/10 04:25:43;;;;;;;12.18;8.80;;;13.70;99.90;;;;;;4826015;29;20121;-84
2022/05/10 04:28:09;;;;;;;11.57;8.23;;;13.80;99.90;;;;;;4810615;29;20050;-84
2022/05/10 04:30:34;;;;;;;14.60;9.18;;;13.80;99.90;;;;;;4826603;29;20085;-84
2022/05/10 04:33:00;;;;;;;14.00;9.13;;;13.70;99.90;;;;;;4826614;29;20120;-85
2022/05/10 04:35:26;;;;;;;12.57;8.70;;;13.80;99.90;;;;;;4795525;29;20106;-86
2022/05/10 04:37:52;;;;;;;13.57;9.73;;;13.80;99.90;;;;;;4826558;29;20077;-85
2022/05/10 04:43:05;;;;;;;12.85;9.07;;;13.80;99.90;;;;;;4826782;29;20475;-85
2022/05/10 04:45:31;;;;;;;11.65;9.27;;;13.80;99.90;;;;;;4825069;29;20054;-85
2022/05/10 04:47:57;;;;;;;13.10;9.43;;;13.90;99.90;;;;;;4825747;29;20050;-86
2022/05/10 04:50:23;;;;;;;11.80;9.65;;;13.90;99.90;;;;;;4825229;29;20133;-86
2022/05/10 04:52:49;;;;;;;12.18;8.40;;;13.90;99.90;;;;;;4826314;29;20111;-87
2022/05/10 04:55:15;;;;;;;13.05;8.88;;;13.90;99.90;;;;;;4826571;29;20451;-88
2022/05/10 04:57:41;;;;;;;12.85;9.32;;;13.90;99.90;;;;;;4826747;29;20395;-86
2022/05/10 05:00:10;;;;;;;13.75;9.18;;;13.90;99.90;;;;;;4825717;29;20046;-86
2022/05/10 05:02:36;;;;;;;11.13;8.55;;;13.90;99.90;;;;;;4810269;29;20099;-87
2022/05/10 05:05:03;;;;;;;10.85;8.60;;;13.90;99.90;;;;;;4825266;29;20046;-85
2022/05/10 05:07:29;;;;;;;12.95;9.20;;;14.00;99.90;;;;;;4826649;29;20125;-86
2022/05/10 05:09:55;;;;;;;13.13;8.82;;;14.00;99.90;;;;;;4825260;29;20138;-86
2022/05/10 05:12:22;;;;;;;13.18;9.15;;;14.00;99.90;;;;;;4824944;29;20451;-86
2022/05/10 05:14:48;;;;;;;15.60;9.43;;;14.10;99.90;;;;;;4825371;29;20407;-86
2022/05/10 05:17:14;;;;;;;11.82;8.90;;;14.10;99.90;;;;;;4824759;29;20046;-86
2022/05/10 05:19:40;;;;;;;15.68;9.45;;;14.10;99.90;;;;;;4826425;29;20038;-85
2022/05/10 05:22:06;;;;;;;16.73;8.93;;;14.20;99.90;;;;;;4808968;29;20057;-83
2022/05/10 05:24:31;;;;;;;12.10;8.02;;;14.20;99.90;;;;;;4825702;29;20050;-84
2022/05/10 05:26:57;;;;;;;14.10;8.95;;;14.30;99.90;;;;;;4825676;29;20546;-85
2022/05/10 05:29:23;;;;;;;15.48;9.07;;;14.30;99.90;;;;;;4824682;29;20058;-85
2022/05/10 05:31:51;;;;;;;14.63;9.98;;;14.30;99.90;;;;;;4825757;29;20055;-84
2022/05/10 05:34:17;;;;;;;14.38;8.80;;;14.40;99.90;;;;;;4824952;29;20050;-85
2022/05/10 05:37:32;;;;;;;12.25;9.05;;;14.40;99.90;;;;;;4825642;29;20054;-85
2022/05/10 05:39:30;;;;;;;13.20;9.02;;;14.50;99.90;;;;;;4825244;29;20057;-85
2022/05/10 05:41:55;;;;;;;13.32;9.40;;;14.50;99.90;;;;;;4809472;29;20054;-85
2022/05/10 05:44:23;;;;;;;13.43;9.65;;;14.50;99.90;;;;;;4809451;29;20061;-85
2022/05/10 05:46:49;;;;;;;14.40;9.48;;;14.50;99.90;;;;;;4809438;29;20054;-85
2022/05/10 05:49:15;;;;;;;12.55;9.60;;;14.60;99.90;;;;;;4825400;29;20046;-84
2022/05/10 05:51:41;;;;;;;14.60;9.05;;;14.60;99.90;;;;;;4825428;29;20190;-84
2022/05/10 05:54:09;;;;;;;12.70;9.40;;;14.60;99.90;;;;;;4826245;29;20062;-84
2022/05/10 05:56:35;;;;;;;14.27;9.20;;;14.70;99.90;;;;;;4824751;29;20133;-84
2022/05/10 05:59:01;;;;;;;13.48;9.02;;;14.70;99.90;;;;;;4809329;29;20054;-84
2022/05/10 06:01:27;;;;;;;13.60;9.90;;;14.70;99.90;;;;;;4825838;29;20057;-84
2022/05/10 06:03:55;;;;;;;14.98;9.23;;;14.80;99.90;;;;;;4825727;29;20467;-84
2022/05/10 06:06:22;;;;;;;13.85;9.30;;;14.80;99.90;;;;;;4825298;29;20054;-84
2022/05/10 06:08:47;;;;;;;13.27;8.95;;;14.90;99.90;;;;;;4823986;29;20092;-81
2022/05/10 06:11:14;;;;;;;12.68;9.05;;;14.90;99.90;;;;;;4825166;29;20183;-84
2022/05/10 06:13:40;;;;;;;10.27;8.75;;;14.90;99.90;;;;;;4824974;29;20054;-84
2022/05/10 06:16:07;;;;;;;13.68;8.73;;;15.00;99.90;;;;;;4825158;29;20138;-84
2022/05/10 06:18:33;;;;;;;14.45;10.05;;;15.10;99.90;;;;;;4825531;29;20050;-84
2022/05/10 06:20:59;;;;;;;13.65;8.75;;;15.10;99.90;;;;;;4809174;29;20060;-85
2022/05/10 06:23:25;;;;;;;14.15;9.73;;;15.10;99.90;;;;;;4808636;29;20076;-84
2022/05/10 06:25:50;;;;;;;12.70;9.25;;;15.20;99.90;;;;;;4825057;29;20050;-83
2022/05/10 06:28:16;;;;;;;14.13;9.55;;;15.20;99.90;;;;;;4825035;29;20400;-84
2022/05/10 06:30:43;;;;;;;14.90;8.93;;;15.30;99.90;;;;;;4823727;29;20081;-83
2022/05/10 06:33:09;;;;;;;14.57;9.32;;;15.40;99.90;;;;;;4823871;29;20085;-83
2022/05/10 06:35:35;;;;;;;14.48;9.10;;;15.40;99.90;;;;;;4823708;29;20529;-83
2022/05/10 06:38:16;;;;;;;13.23;9.10;;;15.40;99.90;;;;;;4823551;29;20066;-84
2022/05/10 06:40:43;;;;;;;15.60;8.98;;;15.50;99.90;;;;;;4824772;29;20074;-84
2022/05/10 06:43:09;;;;;;;13.13;9.88;;;15.60;99.90;;;;;;4824920;29;20054;-84
2022/05/10 06:45:35;;;;;;;14.77;9.18;;;15.60;99.90;;;;;;4808812;29;20042;-85
2022/05/10 06:48:01;;;;;;;12.95;9.07;;;15.60;99.90;;;;;;4828170;29;20057;-83
2022/05/10 06:50:28;;;;;;;12.32;9.02;;;15.70;99.90;;;;;;4814722;29;20191;-84
2022/05/10 06:52:59;;;;;;;14.65;9.60;;;15.70;99.90;;;;;;4826214;29;20583;-85
2022/05/10 06:55:27;;;;;;;14.13;8.55;;;15.80;99.90;;;;;;4824695;29;20050;-84
2022/05/10 06:57:53;;;;;;;13.38;8.50;;;15.80;99.90;;;;;;4824513;29;20187;-85
2022/05/10 07:00:19;;;;;;;11.10;8.48;;;15.90;99.90;;;;;;4824319;29;20129;-85
2022/05/10 07:02:45;;;;;;;13.20;8.30;;;16.00;99.90;;;;;;4824641;29;20058;-85
2022/05/10 07:05:13;;;;;;;10.15;8.48;;;16.10;99.90;;;;;;4824857;29;20054;-86
2022/05/10 07:07:39;;;;;;;10.95;8.25;;;16.30;99.90;;;;;;4808314;29;20178;-85
2022/05/10 07:10:08;;;;;;;11.98;7.80;;;16.40;99.90;;;;;;4823331;29;20050;-85
2022/05/10 07:12:35;;;;;;;13.60;8.73;;;16.50;99.90;;;;;;4808305;29;20065;-84
2022/05/10 07:15:02;;;;;;;12.35;7.53;;;16.70;99.90;;;;;;4823570;29;20054;-86
2022/05/10 07:17:28;;;;;;;11.90;7.72;;;16.80;99.90;;;;;;4824413;29;20067;-85
2022/05/10 07:19:53;;;;;;;10.82;6.60;;;16.90;99.90;;;;;;4823028;29;20133;-85
2022/05/10 07:22:19;;;;;;;10.65;6.72;;;17.00;99.90;;;;;;4824250;29;20103;-84
2022/05/10 07:24:45;;;;;;;8.10;5.82;;;17.10;99.90;;;;;;4829611;29;20476;-84
2022/05/10 07:27:10;;;;;;;9.57;6.10;;;17.20;99.90;;;;;;4823553;29;20062;-87
2022/05/10 07:29:36;;;;;;;8.70;5.55;;;17.30;99.90;;;;;;4824291;29;20046;-83
2022/05/10 07:32:02;;;;;;;9.02;5.20;;;17.40;99.90;;;;;;4808383;29;20057;-84
2022/05/10 07:34:28;;;;;;;7.13;5.60;;;17.60;99.90;;;;;;4823422;29;20059;-86
2022/05/10 07:36:54;;;;;;;8.25;5.05;;;17.60;99.90;;;;;;4824382;29;20077;-85
2022/05/10 07:39:21;;;;;;;8.68;5.30;;;17.70;99.90;;;;;;4822926;29;20050;-82
2022/05/10 07:41:49;;;;;;;8.52;4.43;;;17.90;99.90;;;;;;4824033;29;20509;-77
2022/05/10 07:44:14;;;;;;;7.25;4.75;;;18.00;99.90;;;;;;4825644;29;20055;-83
2022/05/10 07:46:40;;;;;;;7.80;4.97;;;18.20;99.90;;;;;;4830113;29;20050;-82
2022/05/10 07:49:06;;;;;;;9.23;4.60;;;18.30;99.90;;;;;;4811369;29;20056;-83
2022/05/10 07:51:32;;;;;;;7.57;3.88;;;18.50;99.90;;;;;;4827148;29;20143;-82
2022/05/10 07:53:58;;;;;;;4.80;3.42;;;18.60;99.90;;;;;;4826709;29;20054;-85
2022/05/10 07:56:24;;;;;;;8.43;3.42;;;18.80;99.90;;;;;;4826020;29;20471;-86
2022/05/10 07:58:51;;;;;;;6.22;3.75;;;18.90;99.90;;;;;;4811741;29;20054;-90
2022/05/10 08:01:17;;;;;;;6.43;3.45;;;19.00;99.90;;;;;;4826282;29;20093;-85
2022/05/10 08:03:43;;;;;;;7.07;2.92;;;19.20;99.90;;;;;;4826470;29;20082;-82
2022/05/10 08:06:09;;;;;;;4.88;2.95;;;19.30;99.90;;;;;;4827629;29;20047;-83
2022/05/10 08:08:36;;;;;;;5.85;3.47;;;19.40;99.90;;;;;;4827086;29;20137;-88
2022/05/10 08:11:04;;;;;;;5.00;2.97;;;19.50;99.90;;;;;;4827351;29;20055;-87
2022/05/10 08:13:32;;;;;;;7.97;3.15;;;19.70;99.90;;;;;;4828288;29;20388;-89
2022/05/10 08:15:59;;;;;;;7.80;3.15;;;19.70;99.90;;;;;;4827438;29;20050;-87
2022/05/10 08:18:26;;;;;;;5.68;2.75;;;19.70;99.90;;;;;;4827815;29;20089;-89
2022/05/10 08:20:54;;;;;;;4.30;2.60;;;19.90;99.90;;;;;;4827801;29;20042;-91
2022/05/10 08:23:25;;;;;;;3.15;2.35;;;20.00;99.70;;;;;;4830942;29;20403;-92
2022/05/10 08:25:53;;;;;;;5.55;2.78;;;20.10;98.70;;;;;;4828184;29;20074;-91
2022/05/10 08:28:19;;;;;;;5.03;2.83;;;20.10;98.20;;;;;;4829016;29;20047;-94
2022/05/10 08:30:46;;;;;;;5.63;2.83;;;20.20;97.90;;;;;;4829925;29;20095;-92
2022/05/10 08:33:23;;;;;;;7.28;3.05;;;20.20;97.80;;;;;;4827292;29;20054;-91
2022/05/10 08:35:50;;;;;;;3.45;2.88;;;20.30;97.30;;;;;;4828899;29;20129;-93
2022/05/10 08:38:17;;;;;;;6.45;2.85;;;20.30;97.60;;;;;;4827158;29;20115;-89
2022/05/10 08:40:54;;;;;;;8.23;3.60;;;20.40;97.20;;;;;;4828864;29;20058;-92
2022/05/10 08:43:22;;;;;;;5.38;3.35;;;20.50;96.60;;;;;;4826495;29;20517;-85
2022/05/10 08:45:49;;;;;;;5.72;2.95;;;20.60;96.20;;;;;;4827347;29;20164;-89
2022/05/10 08:48:15;;;;;;;5.25;3.10;;;20.60;96.20;;;;;;4827135;29;20054;-88
2022/05/10 08:50:46;;;;;;;6.50;3.00;;;20.70;96.10;;;;;;4825703;29;20050;-84
2022/05/10 08:53:14;;;;;;;6.13;3.10;;;20.80;95.80;;;;;;4826050;29;20046;-86
2022/05/10 08:55:45;;;;;;;6.32;3.00;;;20.90;95.50;;;;;;4825449;29;20047;-85
2022/05/10 08:58:34;;;;;;;5.75;3.47;;;20.90;95.20;;;;;;4824743;29;20086;-90
2022/05/10 09:01:03;;;;;;;6.35;3.45;;;21.00;95.20;;;;;;4825741;29;20046;-93
2022/05/10 09:03:38;;;;;;;7.25;2.97;;;21.00;94.00;;;;;;4828024;29;20054;-90
2022/05/10 09:06:21;;;;;;;6.10;3.65;;;21.00;94.30;;;;;;4825371;29;20093;-86
2022/05/10 09:09:07;;;;;;;;;;;21.00;93.60;;;;;;4826657;29;20133;-88
2022/05/10 09:12:01;;;;;;;4.25;2.72;;;21.00;95.00;;;;;;4822235;29;19925;-87
2022/05/10 09:14:34;;;;;;;6.50;3.10;;;21.00;93.70;;;;;;4825887;29;20058;-83
2022/05/10 09:17:03;;;;;;;7.10;2.83;;;21.10;92.70;;;;;;4826228;29;20050;-82
2022/05/10 09:19:40;;;;;;;6.47;2.47;;;21.10;92.50;;;;;;4823829;29;20073;-87
2022/05/10 09:22:28;;;;;;;6.20;2.65;;;21.20;92.10;;;;;;4824985;29;20058;-85
2022/05/10 09:24:56;;;;;;;5.78;1.85;;;21.20;92.00;;;;;;4823290;29;20568;-87
2022/05/10 09:27:32;;;;;;;7.30;2.28;;;21.20;91.00;;;;;;4824413;29;20121;-87
2022/05/10 09:29:59;;;;;;;3.83;2.35;;;21.20;90.90;;;;;;4825838;29;20085;-85
2022/05/10 09:35:15;;;;;;;8.35;2.92;;;21.30;90.40;;;;;;4825682;29;20073;-86
2022/05/10 09:37:59;;;;;;;6.35;2.67;;;21.20;90.30;;;;;;4825808;29;20050;-88
2022/05/10 09:40:54;;;;;;;8.68;2.90;;;21.20;90.50;;;;;;4826107;29;20427;-82
2022/05/10 09:43:27;;;;;;;5.63;2.83;;;21.20;90.30;;;;;;4816460;29;20206;-87
2022/05/10 09:46:18;;;;;;;6.40;2.85;;;21.20;90.10;;;;;;4823848;29;20058;-84
2022/05/10 09:48:45;;;;;;;6.10;2.80;;;21.10;90.30;;;;;;4824367;29;20046;-87
2022/05/10 09:51:36;;;;;;;5.47;3.15;;;21.00;90.20;;;;;;4824872;29;20047;-86
2022/05/10 09:54:09;;;;;;;5.22;2.92;;;21.00;90.00;;;;;;4825961;29;20043;-83
2022/05/10 09:56:40;;;;;;;4.88;2.72;;;21.10;90.30;;;;;;4824814;29;20069;-84
2022/05/10 09:59:12;;;;;;;5.15;2.75;;;21.10;91.10;;;;;;4825026;29;20165;-79
2022/05/10 10:01:42;;;;;;;4.72;3.10;;;21.20;91.40;;;;;;4824891;29;20081;-84
2022/05/10 10:04:20;;;;;;;4.57;3.00;;;21.20;91.20;;;;;;4811741;29;20057;-85
2022/05/10 10:07:17;;;;;;;5.00;3.60;;;21.30;91.10;;;;;;4828888;29;20057;-78
2022/05/10 10:09:46;;;;;;;5.82;3.08;;;21.40;91.40;;;;;;4830000;29;20107;-80
2022/05/10 10:12:29;;;;;;;6.00;4.15;;;21.50;91.30;;;;;;4831926;29;20057;-85
2022/05/10 10:14:56;;;;;;;6.15;4.07;;;21.60;90.60;;;;;;4836051;29;20053;-83
2022/05/10 10:17:28;;;;;;;8.07;4.00;;;21.70;90.60;;;;;;4834352;29;20046;-84
2022/05/10 10:20:47;;;;;;;9.10;4.90;;;21.80;90.60;;;;;;4833618;29;20072;-83
2022/05/10 10:23:27;;;;;;;7.00;4.25;;;21.80;90.20;;;;;;4813974;29;20132;-82
2022/05/10 10:25:59;;;;;;;6.03;3.97;;;21.90;90.30;;;;;;4834724;29;20054;-83
2022/05/10 10:28:38;;;;;;;6.25;4.32;;;21.90;89.50;;;;;;4834454;29;20054;-85
2022/05/10 10:31:35;;;;;;;5.03;3.75;;;21.90;89.60;;;;;;4829662;29;20141;-82
2022/05/10 10:34:14;;;;;;;5.70;3.58;;;21.90;89.30;;;;;;4821652;29;20066;-81
2022/05/10 10:36:55;;;;;;;5.07;3.67;;;21.90;89.70;;;;;;4827963;29;20387;-83
2022/05/10 10:39:39;;;;;;;6.43;3.60;;;21.90;89.30;;;;;;4835786;29;20149;-80
2022/05/10 10:42:21;;;;;;;6.68;3.60;;;21.90;86.50;;;;;;4835356;29;20058;-81
2022/05/10 10:44:55;;;;;;;7.03;3.30;;;21.80;87.50;;;;;;4835248;29;20465;-78
2022/05/10 10:47:51;;;;;;;5.32;3.70;;;21.90;87.30;;;;;;4817225;29;20495;-81
2022/05/10 10:50:46;;;;;;;6.40;3.22;;;21.90;86.40;;;;;;4811022;29;20106;-82
2022/05/10 10:53:13;;;;;;;7.63;2.92;;;22.10;87.00;;;;;;4812090;29;20476;-82
2022/05/10 10:55:47;;;;;;;4.50;3.00;;;22.20;85.80;;;;;;4839510;29;20076;-83
2022/05/10 10:58:40;;;;;;;6.32;3.08;;;22.30;85.40;;;;;;4836811;29;20050;-80
2022/05/10 11:01:34;;;;;;;6.22;3.35;;;22.40;85.30;;;;;;4839041;29;20054;-86
2022/05/10 11:04:12;;;;;;;9.60;3.63;;;22.50;85.00;;;;;;4828001;29;20054;-84
2022/05/10 11:06:48;;;;;;;8.45;3.75;;;22.60;83.80;;;;;;4841665;29;20050;-77
2022/05/10 11:09:36;;;;;;;5.80;3.38;;;22.60;83.00;;;;;;4839119;29;20054;-83
2022/05/10 11:12:14;;;;;;;7.35;3.22;;;22.70;81.70;;;;;;4826182;29;20077;-85
2022/05/10 11:15:17;;;;;;;6.38;3.55;;;22.70;83.00;;;;;;4826118;29;20051;-87
2022/05/10 11:18:04;;;;;;;6.80;3.97;;;22.70;82.80;;;;;;4827723;29;20081;-82
2022/05/10 11:20:55;;;;;;;4.95;2.95;;;22.70;82.20;;;;;;4828027;29;20352;-83
2022/05/10 11:23:42;;;;;;;7.45;3.35;;;22.60;82.30;;;;;;4828713;29;20051;-84
2022/05/10 11:26:21;;;;;;;8.40;4.45;;;22.60;82.20;;;;;;4827350;29;20109;-79
2022/05/10 11:29:06;;;;;;;6.20;4.07;;;22.50;82.00;;;;;;4827679;29;20137;-83
2022/05/10 11:31:57;;;;;;;8.60;3.78;;;22.40;81.10;;;;;;4828395;29;20046;-89
2022/05/10 11:34:26;;;;;;;10.32;3.70;;;22.40;79.90;;;;;;4828394;29;20073;-83
2022/05/10 11:36:52;;;;;;;6.60;3.30;;;22.30;79.80;;;;;;4828196;29;20058;-84
2022/05/10 11:39:50;;;;;;;12.32;3.72;;;22.30;80.40;;;;;;4811488;29;20066;-77
2022/05/10 11:42:34;;;;;;;9.43;4.68;;;22.20;80.70;;;;;;4827657;29;20073;-85
2022/05/10 11:45:00;;;;;;;8.90;4.28;;;22.20;81.20;;;;;;4828171;29;20141;-79
2022/05/10 11:47:44;;;;;;;7.45;4.82;;;22.20;81.30;;;;;;4827569;29;20134;-73
2022/05/10 11:50:34;;;;;;;8.05;4.78;;;22.20;81.20;;;;;;4827997;29;20047;-83
2022/05/10 11:53:16;;;;;;;7.78;4.28;;;22.20;82.20;;;;;;4826496;29;20057;-81
2022/05/10 11:55:55;;;;;;;;;;;22.20;83.40;;;;;;4827208;29;20050;-79
2022/05/10 11:58:23;;;;;;;5.80;4.15;;;22.20;84.20;;;;;;4828456;29;19925;-81
2022/05/10 12:00:55;;;;;;;6.68;4.45;;;22.20;83.70;;;;;;4827795;29;20046;-79
2022/05/10 12:03:36;;;;;;;5.30;4.25;;;22.20;82.40;;;;;;4827802;29;20060;-80
2022/05/10 12:06:23;;;;;;;6.78;4.47;;;22.30;83.10;;;;;;4827117;29;20061;-79
2022/05/10 12:09:00;;;;;;;10.32;5.20;;;22.30;83.50;;;;;;4827074;29;20090;-74
2022/05/10 12:11:30;;;;;;;5.95;4.72;;;22.40;82.90;;;;;;4826076;29;20093;-75
2022/05/10 12:22:45;;;;;;;8.35;3.75;;;22.70;80.40;;;;;;4828024;29;20054;-75
2022/05/10 12:25:50;;;;;;;7.38;3.53;;;22.80;80.20;;;;;;4825967;29;20407;-80
2022/05/10 12:28:39;;;;;;;6.60;3.83;;;22.90;80.70;;;;;;4827339;29;20129;-77
2022/05/10 12:31:24;;;;;;;5.18;4.38;;;23.10;79.90;;;;;;4826084;29;20131;-74
2022/05/10 12:34:08;;;;;;;5.53;4.10;;;23.20;78.50;;;;;;4827281;29;20054;-82
2022/05/10 12:36:37;;;;;;;5.68;3.90;;;23.30;78.80;;;;;;4827331;29;20082;-82
2022/05/10 12:39:17;;;;;;;8.13;3.70;;;23.20;78.50;;;;;;4826919;29;20395;-77
2022/05/10 12:41:52;;;;;;;6.55;3.83;;;23.20;78.00;;;;;;4827115;29;20078;-74
2022/05/10 12:44:50;;;;;;;5.55;3.63;;;23.10;77.90;;;;;;4825717;29;20058;-79
2022/05/10 12:47:23;;;;;;;8.15;3.13;;;23.10;78.80;;;;;;4826579;29;20133;-81
2022/05/10 12:50:14;;;;;;;7.40;2.88;;;23.00;78.20;;;;;;4826488;29;20080;-71
2022/05/10 12:52:49;;;;;;;6.75;3.03;;;23.00;76.20;;;;;;4810450;29;20499;-76
2022/05/10 12:55:22;;;;;;;5.43;3.47;;;23.10;77.00;;;;;;4827250;29;20110;-78
2022/05/10 12:58:10;;;;;;;8.15;3.55;;;23.10;76.30;;;;;;4826379;29;20513;-72
2022/05/10 13:00:44;;;;;;;7.35;3.42;;;23.20;75.60;;;;;;4827130;29;20054;-73
2022/05/10 13:03:21;;;;;;;6.40;3.30;;;23.20;75.20;;;;;;4827122;29;20073;-77
2022/05/10 13:06:07;;;;;;;7.30;3.28;;;23.20;75.10;;;;;;4825948;29;20062;-73
2022/05/10 13:09:18;;;;;;;4.75;2.50;;;23.20;73.80;;;;;;4826784;29;20526;-79
2022/05/10 13:11:57;;;;;;;8.38;3.03;;;23.20;75.40;;;;;;4826634;29;20058;-75
2022/05/10 13:14:24;;;;;;;6.40;3.30;;;23.20;73.20;;;;;;4825214;29;20050;-78
2022/05/10 13:16:53;;;;;;;5.85;3.00;;;23.20;74.20;;;;;;4825091;29;20521;-78
2022/05/10 13:19:22;;;;;;;5.95;2.88;;;23.10;74.50;;;;;;4825053;29;20171;-74
2022/05/10 13:21:48;;;;;;;6.78;3.05;;;23.00;74.60;;;;;;4824854;29;20058;-78
2022/05/10 13:24:20;;;;;;;7.22;3.28;;;22.90;75.60;;;;;;4826094;29;20099;-74
2022/05/10 13:27:05;;;;;;;6.13;3.60;;;22.90;76.00;;;;;;4826065;29;20058;-78
2022/05/10 13:29:45;;;;;;;5.68;3.42;;;22.80;76.20;;;;;;4826108;29;20042;-74
2022/05/10 13:32:33;;;;;;;5.45;3.05;;;22.80;75.60;;;;;;4825959;29;20050;-75
2022/05/10 13:35:23;;;;;;;7.97;3.72;;;22.70;75.50;;;;;;4825739;29;20050;-74
2022/05/10 13:38:05;;;;;;;9.35;3.28;;;22.70;75.80;;;;;;4825563;29;20050;-73